sensor_id;sensor_type;location;lat;lon;timestamp;temperature;humidity
12911;DHT22;6523;49.758;6.120;2022-12-07T00:00:55;2.10;99.90
12911;DHT22;6523;49.758;6.120;2022-12-07T00:03:21;2.10;99.90
12911;DHT22;6523;49.758;6.120;2022-12-07T00:05:46;2.10;99.90
12911;DHT22;6523;49.758;6.120;2022-12-07T00:08:12;2.10;99.90
12911;DHT22;6523;49.758;6.120;2022-12-07T00:10:37;2.10;99.90
12911;DHT22;6523;49.758;6.120;2022-12-07T00:13:03;2.20;99.90
12911;DHT22;6523;49.758;6.120;2022-12-07T00:15:29;2.20;99.90
12911;DHT22;6523;49.758;6.120;2022-12-07T00:17:54;2.10;99.90
12911;DHT22;6523;49.758;6.120;2022-12-07T00:20:20;2.20;99.90
12911;DHT22;6523;49.758;6.120;2022-12-07T00:22:45;2.20;99.90
12911;DHT22;6523;49.758;6.120;2022-12-07T00:25:11;2.20;99.90
12911;DHT22;6523;49.758;6.120;2022-12-07T00:27:36;2.20;99.90
12911;DHT22;6523;49.758;6.120;2022-12-07T00:30:02;2.10;99.90
12911;DHT22;6523;49.758;6.120;2022-12-07T00:32:28;2.10;99.90
12911;DHT22;6523;49.758;6.120;2022-12-07T00:34:53;2.20;99.90
12911;DHT22;6523;49.758;6.120;2022-12-07T00:37:19;2.10;99.90
12911;DHT22;6523;49.758;6.120;2022-12-07T00:39:45;2.20;99.90
12911;DHT22;6523;49.758;6.120;2022-12-07T00:42:11;2.20;99.90
12911;DHT22;6523;49.758;6.120;2022-12-07T00:44:37;2.20;99.90
12911;DHT22;6523;49.758;6.120;2022-12-07T00:47:02;2.10;99.90
12911;DHT22;6523;49.758;6.120;2022-12-07T00:49:28;2.10;99.90
12911;DHT22;6523;49.758;6.120;2022-12-07T00:51:54;2.10;99.90
12911;DHT22;6523;49.758;6.120;2022-12-07T00:54:19;2.10;99.90
12911;DHT22;6523;49.758;6.120;2022-12-07T00:56:45;2.00;99.90
12911;DHT22;6523;49.758;6.120;2022-12-07T00:59:12;2.00;99.90
12911;DHT22;6523;49.758;6.120;2022-12-07T01:01:39;2.00;99.90
12911;DHT22;6523;49.758;6.120;2022-12-07T01:04:06;2.00;99.90
12911;DHT22;6523;49.758;6.120;2022-12-07T01:06:32;2.00;99.90
12911;DHT22;6523;49.758;6.120;2022-12-07T01:08:58;1.90;99.90
12911;DHT22;6523;49.758;6.120;2022-12-07T01:11:27;1.90;99.90
12911;DHT22;6523;49.758;6.120;2022-12-07T01:13:54;1.90;99.90
12911;DHT22;6523;49.758;6.120;2022-12-07T01:16:21;1.90;99.90
12911;DHT22;6523;49.758;6.120;2022-12-07T01:18:49;1.90;99.90
12911;DHT22;6523;49.758;6.120;2022-12-07T01:21:18;2.00;99.90
12911;DHT22;6523;49.758;6.120;2022-12-07T01:23:46;2.00;99.90
12911;DHT22;6523;49.758;6.120;2022-12-07T01:26:14;2.00;99.90
12911;DHT22;6523;49.758;6.120;2022-12-07T01:28:40;2.10;99.90
12911;DHT22;6523;49.758;6.120;2022-12-07T01:31:07;2.10;99.90
12911;DHT22;6523;49.758;6.120;2022-12-07T01:33:35;2.20;99.90
12911;DHT22;6523;49.758;6.120;2022-12-07T01:36:15;2.20;99.90
12911;DHT22;6523;49.758;6.120;2022-12-07T01:38:42;2.20;99.90
12911;DHT22;6523;49.758;6.120;2022-12-07T01:41:08;2.20;99.90
12911;DHT22;6523;49.758;6.120;2022-12-07T01:43:34;2.20;99.90
12911;DHT22;6523;49.758;6.120;2022-12-07T01:46:00;2.30;99.90
12911;DHT22;6523;49.758;6.120;2022-12-07T01:48:31;2.40;99.90
12911;DHT22;6523;49.758;6.120;2022-12-07T01:51:02;2.40;99.90
12911;DHT22;6523;49.758;6.120;2022-12-07T01:53:30;2.40;99.90
12911;DHT22;6523;49.758;6.120;2022-12-07T01:55:57;2.40;99.90
12911;DHT22;6523;49.758;6.120;2022-12-07T01:58:25;2.40;99.90
12911;DHT22;6523;49.758;6.120;2022-12-07T02:00:51;2.50;99.90
12911;DHT22;6523;49.758;6.120;2022-12-07T02:03:18;2.50;99.90
12911;DHT22;6523;49.758;6.120;2022-12-07T02:05:46;2.60;99.90
12911;DHT22;6523;49.758;6.120;2022-12-07T02:08:13;2.50;99.90
12911;DHT22;6523;49.758;6.120;2022-12-07T02:10:39;2.60;99.90
12911;DHT22;6523;49.758;6.120;2022-12-07T02:13:13;2.60;99.90
12911;DHT22;6523;49.758;6.120;2022-12-07T02:15:52;2.60;99.90
12911;DHT22;6523;49.758;6.120;2022-12-07T02:21:16;2.70;99.90
12911;DHT22;6523;49.758;6.120;2022-12-07T02:29:20;2.80;99.90
12911;DHT22;6523;49.758;6.120;2022-12-07T02:39:59;2.70;99.90
12911;DHT22;6523;49.758;6.120;2022-12-07T02:42:40;2.80;99.90
12911;DHT22;6523;49.758;6.120;2022-12-07T02:45:08;2.80;99.90
12911;DHT22;6523;49.758;6.120;2022-12-07T02:47:36;2.80;99.90
12911;DHT22;6523;49.758;6.120;2022-12-07T02:50:05;2.80;99.90
12911;DHT22;6523;49.758;6.120;2022-12-07T02:52:31;2.70;99.90
12911;DHT22;6523;49.758;6.120;2022-12-07T02:54:56;2.80;99.90
12911;DHT22;6523;49.758;6.120;2022-12-07T03:00:20;2.80;99.90
12911;DHT22;6523;49.758;6.120;2022-12-07T03:03:06;2.90;99.90
12911;DHT22;6523;49.758;6.120;2022-12-07T03:05:49;2.90;99.90
12911;DHT22;6523;49.758;6.120;2022-12-07T03:11:09;2.80;99.90
12911;DHT22;6523;49.758;6.120;2022-12-07T03:16:27;2.90;99.90
12911;DHT22;6523;49.758;6.120;2022-12-07T03:19:00;2.90;99.90
12911;DHT22;6523;49.758;6.120;2022-12-07T03:21:32;2.80;99.90
12911;DHT22;6523;49.758;6.120;2022-12-07T03:24:00;2.90;99.90
12911;DHT22;6523;49.758;6.120;2022-12-07T03:26:32;2.90;99.90
12911;DHT22;6523;49.758;6.120;2022-12-07T03:29:05;2.90;99.90
12911;DHT22;6523;49.758;6.120;2022-12-07T03:31:37;2.90;99.90
12911;DHT22;6523;49.758;6.120;2022-12-07T03:34:16;2.90;99.90
12911;DHT22;6523;49.758;6.120;2022-12-07T03:37:00;3.00;99.90
12911;DHT22;6523;49.758;6.120;2022-12-07T03:39:29;2.90;99.90
12911;DHT22;6523;49.758;6.120;2022-12-07T03:41:57;3.00;99.90
12911;DHT22;6523;49.758;6.120;2022-12-07T03:44:24;2.90;99.90
12911;DHT22;6523;49.758;6.120;2022-12-07T03:52:12;3.00;99.90
12911;DHT22;6523;49.758;6.120;2022-12-07T03:54:46;3.00;99.90
12911;DHT22;6523;49.758;6.120;2022-12-07T03:57:13;3.00;99.90
12911;DHT22;6523;49.758;6.120;2022-12-07T03:59:40;3.00;99.90
12911;DHT22;6523;49.758;6.120;2022-12-07T04:02:07;3.00;99.90
12911;DHT22;6523;49.758;6.120;2022-12-07T04:04:33;3.00;99.90
12911;DHT22;6523;49.758;6.120;2022-12-07T04:06:59;3.10;99.90
12911;DHT22;6523;49.758;6.120;2022-12-07T04:09:25;3.10;99.90
12911;DHT22;6523;49.758;6.120;2022-12-07T04:11:51;3.10;99.90
12911;DHT22;6523;49.758;6.120;2022-12-07T04:14:16;3.10;99.90
12911;DHT22;6523;49.758;6.120;2022-12-07T04:16:50;3.10;99.90
12911;DHT22;6523;49.758;6.120;2022-12-07T04:19:17;3.10;99.90
12911;DHT22;6523;49.758;6.120;2022-12-07T04:21:43;3.10;99.90
12911;DHT22;6523;49.758;6.120;2022-12-07T04:24:08;3.10;99.90
12911;DHT22;6523;49.758;6.120;2022-12-07T04:26:34;3.10;99.90
12911;DHT22;6523;49.758;6.120;2022-12-07T04:29:00;3.10;99.90
12911;DHT22;6523;49.758;6.120;2022-12-07T04:31:25;3.10;99.90
12911;DHT22;6523;49.758;6.120;2022-12-07T04:33:51;3.10;99.90
12911;DHT22;6523;49.758;6.120;2022-12-07T04:36:16;3.10;99.90
12911;DHT22;6523;49.758;6.120;2022-12-07T04:38:42;3.10;99.90
12911;DHT22;6523;49.758;6.120;2022-12-07T04:41:09;3.10;99.90
12911;DHT22;6523;49.758;6.120;2022-12-07T04:43:35;3.10;99.90
12911;DHT22;6523;49.758;6.120;2022-12-07T04:46:01;3.10;99.90
12911;DHT22;6523;49.758;6.120;2022-12-07T04:48:27;3.10;99.90
12911;DHT22;6523;49.758;6.120;2022-12-07T04:50:52;3.10;99.90
12911;DHT22;6523;49.758;6.120;2022-12-07T04:53:18;3.10;99.90
12911;DHT22;6523;49.758;6.120;2022-12-07T04:55:45;3.10;99.90
12911;DHT22;6523;49.758;6.120;2022-12-07T04:58:11;3.10;99.90
12911;DHT22;6523;49.758;6.120;2022-12-07T05:00:37;3.10;99.90
12911;DHT22;6523;49.758;6.120;2022-12-07T05:03:03;3.10;99.90
12911;DHT22;6523;49.758;6.120;2022-12-07T05:05:29;3.10;99.90
12911;DHT22;6523;49.758;6.120;2022-12-07T05:07:54;3.10;99.90
12911;DHT22;6523;49.758;6.120;2022-12-07T05:10:20;3.10;99.90
12911;DHT22;6523;49.758;6.120;2022-12-07T05:12:46;3.10;99.90
12911;DHT22;6523;49.758;6.120;2022-12-07T05:15:13;3.00;99.90
12911;DHT22;6523;49.758;6.120;2022-12-07T05:17:38;3.00;99.90
12911;DHT22;6523;49.758;6.120;2022-12-07T05:20:04;3.00;99.90
12911;DHT22;6523;49.758;6.120;2022-12-07T05:22:30;3.00;99.90
12911;DHT22;6523;49.758;6.120;2022-12-07T05:24:56;3.00;99.90
12911;DHT22;6523;49.758;6.120;2022-12-07T05:27:22;3.00;99.90
12911;DHT22;6523;49.758;6.120;2022-12-07T05:29:49;3.00;99.90
12911;DHT22;6523;49.758;6.120;2022-12-07T05:32:15;3.10;99.90
12911;DHT22;6523;49.758;6.120;2022-12-07T05:34:40;3.10;99.90
12911;DHT22;6523;49.758;6.120;2022-12-07T05:37:06;3.10;99.90
12911;DHT22;6523;49.758;6.120;2022-12-07T05:39:31;3.10;99.90
12911;DHT22;6523;49.758;6.120;2022-12-07T05:41:57;3.10;99.90
12911;DHT22;6523;49.758;6.120;2022-12-07T05:44:39;3.10;99.90
12911;DHT22;6523;49.758;6.120;2022-12-07T05:47:04;3.10;99.90
12911;DHT22;6523;49.758;6.120;2022-12-07T05:49:30;3.10;99.90
12911;DHT22;6523;49.758;6.120;2022-12-07T05:51:55;3.10;99.90
12911;DHT22;6523;49.758;6.120;2022-12-07T05:54:21;3.10;99.90
12911;DHT22;6523;49.758;6.120;2022-12-07T05:56:47;3.10;99.90
12911;DHT22;6523;49.758;6.120;2022-12-07T05:59:13;3.10;99.90
12911;DHT22;6523;49.758;6.120;2022-12-07T06:02:05;3.10;99.90
12911;DHT22;6523;49.758;6.120;2022-12-07T06:04:35;3.10;99.90
12911;DHT22;6523;49.758;6.120;2022-12-07T06:07:01;3.10;99.90
12911;DHT22;6523;49.758;6.120;2022-12-07T06:09:27;3.10;99.90
12911;DHT22;6523;49.758;6.120;2022-12-07T06:11:54;3.10;99.90
12911;DHT22;6523;49.758;6.120;2022-12-07T06:14:38;3.10;99.90
12911;DHT22;6523;49.758;6.120;2022-12-07T06:17:05;3.10;99.90
12911;DHT22;6523;49.758;6.120;2022-12-07T06:19:30;3.10;99.90
12911;DHT22;6523;49.758;6.120;2022-12-07T06:21:56;3.10;99.90
12911;DHT22;6523;49.758;6.120;2022-12-07T06:24:22;3.10;99.90
12911;DHT22;6523;49.758;6.120;2022-12-07T06:26:48;3.20;99.90
12911;DHT22;6523;49.758;6.120;2022-12-07T06:29:14;3.20;99.90
12911;DHT22;6523;49.758;6.120;2022-12-07T06:31:39;3.20;99.90
12911;DHT22;6523;49.758;6.120;2022-12-07T06:34:09;3.20;99.90
12911;DHT22;6523;49.758;6.120;2022-12-07T06:36:35;3.20;99.90
12911;DHT22;6523;49.758;6.120;2022-12-07T06:39:01;3.20;99.90
12911;DHT22;6523;49.758;6.120;2022-12-07T06:41:26;3.20;99.90
12911;DHT22;6523;49.758;6.120;2022-12-07T06:43:52;3.20;99.90
12911;DHT22;6523;49.758;6.120;2022-12-07T06:46:17;3.20;99.90
12911;DHT22;6523;49.758;6.120;2022-12-07T06:48:43;3.20;99.90
12911;DHT22;6523;49.758;6.120;2022-12-07T06:51:09;3.20;99.90
12911;DHT22;6523;49.758;6.120;2022-12-07T06:53:35;3.10;99.90
12911;DHT22;6523;49.758;6.120;2022-12-07T06:56:01;3.10;99.90
12911;DHT22;6523;49.758;6.120;2022-12-07T06:58:27;3.10;99.90
12911;DHT22;6523;49.758;6.120;2022-12-07T07:00:53;3.10;99.90
12911;DHT22;6523;49.758;6.120;2022-12-07T07:03:18;3.20;99.90
12911;DHT22;6523;49.758;6.120;2022-12-07T07:05:44;3.10;99.90
12911;DHT22;6523;49.758;6.120;2022-12-07T07:08:10;3.10;99.90
12911;DHT22;6523;49.758;6.120;2022-12-07T07:10:36;3.10;99.90
12911;DHT22;6523;49.758;6.120;2022-12-07T07:13:02;3.10;99.90
12911;DHT22;6523;49.758;6.120;2022-12-07T07:15:28;3.10;99.90
12911;DHT22;6523;49.758;6.120;2022-12-07T07:17:54;3.10;99.90
12911;DHT22;6523;49.758;6.120;2022-12-07T07:20:20;3.10;99.90
12911;DHT22;6523;49.758;6.120;2022-12-07T07:22:46;3.10;99.90
12911;DHT22;6523;49.758;6.120;2022-12-07T07:25:11;3.10;99.90
12911;DHT22;6523;49.758;6.120;2022-12-07T07:27:37;3.10;99.90
12911;DHT22;6523;49.758;6.120;2022-12-07T07:30:03;3.10;99.90
12911;DHT22;6523;49.758;6.120;2022-12-07T07:32:29;3.20;99.90
12911;DHT22;6523;49.758;6.120;2022-12-07T07:34:54;3.20;99.90
12911;DHT22;6523;49.758;6.120;2022-12-07T07:37:20;3.20;99.90
12911;DHT22;6523;49.758;6.120;2022-12-07T07:39:45;3.20;99.90
12911;DHT22;6523;49.758;6.120;2022-12-07T07:42:11;3.20;99.90
12911;DHT22;6523;49.758;6.120;2022-12-07T07:44:37;3.20;99.90
12911;DHT22;6523;49.758;6.120;2022-12-07T07:47:03;3.20;99.90
12911;DHT22;6523;49.758;6.120;2022-12-07T07:49:28;3.20;99.90
12911;DHT22;6523;49.758;6.120;2022-12-07T07:51:54;3.20;99.90
12911;DHT22;6523;49.758;6.120;2022-12-07T07:54:20;3.20;99.90
12911;DHT22;6523;49.758;6.120;2022-12-07T07:56:45;3.30;99.90
12911;DHT22;6523;49.758;6.120;2022-12-07T07:59:11;3.30;99.90
12911;DHT22;6523;49.758;6.120;2022-12-07T08:01:36;3.30;99.90
12911;DHT22;6523;49.758;6.120;2022-12-07T08:04:02;3.30;99.90
12911;DHT22;6523;49.758;6.120;2022-12-07T08:06:27;3.40;99.90
12911;DHT22;6523;49.758;6.120;2022-12-07T08:08:53;3.40;99.90
12911;DHT22;6523;49.758;6.120;2022-12-07T08:11:19;3.40;99.90
12911;DHT22;6523;49.758;6.120;2022-12-07T08:13:47;3.40;99.90
12911;DHT22;6523;49.758;6.120;2022-12-07T08:16:13;3.40;99.90
12911;DHT22;6523;49.758;6.120;2022-12-07T08:18:41;3.40;99.90
12911;DHT22;6523;49.758;6.120;2022-12-07T08:21:09;3.50;99.90
12911;DHT22;6523;49.758;6.120;2022-12-07T08:23:35;3.50;99.90
12911;DHT22;6523;49.758;6.120;2022-12-07T08:26:09;3.60;99.90
12911;DHT22;6523;49.758;6.120;2022-12-07T08:28:36;3.70;99.90
12911;DHT22;6523;49.758;6.120;2022-12-07T08:31:13;3.70;99.90
12911;DHT22;6523;49.758;6.120;2022-12-07T08:33:39;3.60;99.90
12911;DHT22;6523;49.758;6.120;2022-12-07T08:36:07;3.60;99.90
12911;DHT22;6523;49.758;6.120;2022-12-07T08:38:34;3.60;99.90
12911;DHT22;6523;49.758;6.120;2022-12-07T08:41:00;3.60;99.90
12911;DHT22;6523;49.758;6.120;2022-12-07T08:43:26;3.70;99.90
12911;DHT22;6523;49.758;6.120;2022-12-07T08:46:09;3.80;99.90
12911;DHT22;6523;49.758;6.120;2022-12-07T08:48:42;3.80;99.90
12911;DHT22;6523;49.758;6.120;2022-12-07T08:51:10;3.90;99.90
12911;DHT22;6523;49.758;6.120;2022-12-07T08:53:38;3.90;99.90
12911;DHT22;6523;49.758;6.120;2022-12-07T08:56:05;3.80;99.90
12911;DHT22;6523;49.758;6.120;2022-12-07T08:58:32;3.80;99.90
12911;DHT22;6523;49.758;6.120;2022-12-07T09:00:58;3.80;99.90
12911;DHT22;6523;49.758;6.120;2022-12-07T09:03:23;3.90;99.90
12911;DHT22;6523;49.758;6.120;2022-12-07T09:05:49;3.90;99.90
12911;DHT22;6523;49.758;6.120;2022-12-07T09:08:15;3.80;99.90
12911;DHT22;6523;49.758;6.120;2022-12-07T09:10:41;3.70;99.90
12911;DHT22;6523;49.758;6.120;2022-12-07T09:13:06;3.70;99.90
12911;DHT22;6523;49.758;6.120;2022-12-07T09:15:33;3.60;99.90
12911;DHT22;6523;49.758;6.120;2022-12-07T09:17:58;3.60;99.90
12911;DHT22;6523;49.758;6.120;2022-12-07T09:20:24;3.50;99.90
12911;DHT22;6523;49.758;6.120;2022-12-07T09:22:49;3.50;99.90
12911;DHT22;6523;49.758;6.120;2022-12-07T09:25:15;3.50;99.90
12911;DHT22;6523;49.758;6.120;2022-12-07T09:27:41;3.70;99.90
12911;DHT22;6523;49.758;6.120;2022-12-07T09:30:07;3.80;99.90
12911;DHT22;6523;49.758;6.120;2022-12-07T09:32:33;3.90;99.90
12911;DHT22;6523;49.758;6.120;2022-12-07T09:34:59;4.00;99.90
12911;DHT22;6523;49.758;6.120;2022-12-07T09:37:24;4.20;99.90
12911;DHT22;6523;49.758;6.120;2022-12-07T09:39:50;4.30;99.90
12911;DHT22;6523;49.758;6.120;2022-12-07T09:42:37;4.30;99.90
12911;DHT22;6523;49.758;6.120;2022-12-07T09:45:07;4.40;99.90
12911;DHT22;6523;49.758;6.120;2022-12-07T09:47:33;4.40;99.90
12911;DHT22;6523;49.758;6.120;2022-12-07T09:50:06;4.50;99.90
12911;DHT22;6523;49.758;6.120;2022-12-07T09:52:32;4.60;99.90
12911;DHT22;6523;49.758;6.120;2022-12-07T09:54:58;4.60;99.90
12911;DHT22;6523;49.758;6.120;2022-12-07T09:57:32;4.70;99.90
12911;DHT22;6523;49.758;6.120;2022-12-07T10:00:16;4.70;99.90
12911;DHT22;6523;49.758;6.120;2022-12-07T10:02:50;4.60;99.90
12911;DHT22;6523;49.758;6.120;2022-12-07T10:05:20;4.50;99.90
12911;DHT22;6523;49.758;6.120;2022-12-07T10:07:47;4.50;99.90
12911;DHT22;6523;49.758;6.120;2022-12-07T10:10:24;4.60;99.90
12911;DHT22;6523;49.758;6.120;2022-12-07T10:15:20;4.80;99.90
12911;DHT22;6523;49.758;6.120;2022-12-07T10:17:51;4.80;99.90
12911;DHT22;6523;49.758;6.120;2022-12-07T10:20:26;4.90;99.90
12911;DHT22;6523;49.758;6.120;2022-12-07T10:23:05;4.80;99.90
12911;DHT22;6523;49.758;6.120;2022-12-07T10:25:34;4.90;99.90
12911;DHT22;6523;49.758;6.120;2022-12-07T10:28:20;5.00;99.90
12911;DHT22;6523;49.758;6.120;2022-12-07T10:31:19;5.10;99.90
12911;DHT22;6523;49.758;6.120;2022-12-07T10:33:59;5.20;99.90
12911;DHT22;6523;49.758;6.120;2022-12-07T10:39:12;5.20;99.90
12911;DHT22;6523;49.758;6.120;2022-12-07T10:44:23;5.20;99.90
12911;DHT22;6523;49.758;6.120;2022-12-07T10:47:09;5.10;99.90
12911;DHT22;6523;49.758;6.120;2022-12-07T10:55:41;5.30;99.90
12911;DHT22;6523;49.758;6.120;2022-12-07T11:01:33;5.40;99.90
12911;DHT22;6523;49.758;6.120;2022-12-07T11:06:57;5.70;99.90
12911;DHT22;6523;49.758;6.120;2022-12-07T11:12:07;5.50;99.90
12911;DHT22;6523;49.758;6.120;2022-12-07T11:17:20;5.50;99.90
12911;DHT22;6523;49.758;6.120;2022-12-07T11:20:05;5.40;99.90
12911;DHT22;6523;49.758;6.120;2022-12-07T11:22:44;5.30;99.90
12911;DHT22;6523;49.758;6.120;2022-12-07T11:30:37;5.20;99.90
12911;DHT22;6523;49.758;6.120;2022-12-07T11:38:54;5.20;99.90
12911;DHT22;6523;49.758;6.120;2022-12-07T11:41:31;5.10;99.90
12911;DHT22;6523;49.758;6.120;2022-12-07T11:51:58;5.30;99.90
12911;DHT22;6523;49.758;6.120;2022-12-07T11:54:31;5.30;99.90
12911;DHT22;6523;49.758;6.120;2022-12-07T11:57:07;5.40;99.90
12911;DHT22;6523;49.758;6.120;2022-12-07T11:59:59;5.50;99.90
12911;DHT22;6523;49.758;6.120;2022-12-07T12:02:59;5.50;99.90
12911;DHT22;6523;49.758;6.120;2022-12-07T12:05:27;5.40;99.90
12911;DHT22;6523;49.758;6.120;2022-12-07T12:08:25;5.40;99.90
12911;DHT22;6523;49.758;6.120;2022-12-07T12:11:02;5.40;99.90
12911;DHT22;6523;49.758;6.120;2022-12-07T12:13:55;5.30;99.90
12911;DHT22;6523;49.758;6.120;2022-12-07T12:22:20;5.50;99.90
12911;DHT22;6523;49.758;6.120;2022-12-07T12:24:51;5.40;99.90
12911;DHT22;6523;49.758;6.120;2022-12-07T12:27:32;5.50;99.90
12911;DHT22;6523;49.758;6.120;2022-12-07T12:30:01;5.60;99.90
12911;DHT22;6523;49.758;6.120;2022-12-07T12:32:41;5.70;99.90
12911;DHT22;6523;49.758;6.120;2022-12-07T12:35:30;5.80;99.90
12911;DHT22;6523;49.758;6.120;2022-12-07T12:40:50;5.70;99.90
12911;DHT22;6523;49.758;6.120;2022-12-07T12:51:47;5.40;99.90
12911;DHT22;6523;49.758;6.120;2022-12-07T12:56:51;5.50;99.90
12911;DHT22;6523;49.758;6.120;2022-12-07T13:01:49;5.50;99.90
12911;DHT22;6523;49.758;6.120;2022-12-07T13:04:30;5.60;99.90
12911;DHT22;6523;49.758;6.120;2022-12-07T13:06:59;5.70;99.90
12911;DHT22;6523;49.758;6.120;2022-12-07T13:09:30;5.70;99.90
12911;DHT22;6523;49.758;6.120;2022-12-07T13:12:14;5.70;99.90
12911;DHT22;6523;49.758;6.120;2022-12-07T13:19:55;5.80;99.90
12911;DHT22;6523;49.758;6.120;2022-12-07T13:25:30;5.80;99.90
12911;DHT22;6523;49.758;6.120;2022-12-07T13:28:23;5.70;99.90
12911;DHT22;6523;49.758;6.120;2022-12-07T13:31:00;5.70;99.90
12911;DHT22;6523;49.758;6.120;2022-12-07T13:33:28;5.60;99.90
12911;DHT22;6523;49.758;6.120;2022-12-07T13:35:55;5.60;99.90
12911;DHT22;6523;49.758;6.120;2022-12-07T13:38:30;5.50;99.90
12911;DHT22;6523;49.758;6.120;2022-12-07T13:46:25;5.40;99.90
12911;DHT22;6523;49.758;6.120;2022-12-07T13:48:52;5.50;99.90
12911;DHT22;6523;49.758;6.120;2022-12-07T13:51:21;5.60;99.90
12911;DHT22;6523;49.758;6.120;2022-12-07T13:53:49;5.70;99.90
12911;DHT22;6523;49.758;6.120;2022-12-07T13:56:15;5.70;99.90
12911;DHT22;6523;49.758;6.120;2022-12-07T13:58:41;5.80;99.90
12911;DHT22;6523;49.758;6.120;2022-12-07T14:01:08;5.90;99.90
12911;DHT22;6523;49.758;6.120;2022-12-07T14:03:36;5.90;99.90
12911;DHT22;6523;49.758;6.120;2022-12-07T14:06:15;6.00;99.90
12911;DHT22;6523;49.758;6.120;2022-12-07T14:08:42;5.90;99.90
12911;DHT22;6523;49.758;6.120;2022-12-07T14:11:19;5.80;99.90
12911;DHT22;6523;49.758;6.120;2022-12-07T14:13:55;5.70;99.90
12911;DHT22;6523;49.758;6.120;2022-12-07T14:18:53;5.70;99.90
12911;DHT22;6523;49.758;6.120;2022-12-07T14:21:22;5.60;99.90
12911;DHT22;6523;49.758;6.120;2022-12-07T14:26:32;5.60;99.90
12911;DHT22;6523;49.758;6.120;2022-12-07T14:29:18;5.50;99.90
12911;DHT22;6523;49.758;6.120;2022-12-07T14:31:44;5.50;99.90
12911;DHT22;6523;49.758;6.120;2022-12-07T14:34:12;5.50;99.90
12911;DHT22;6523;49.758;6.120;2022-12-07T14:36:38;5.50;99.90
12911;DHT22;6523;49.758;6.120;2022-12-07T14:39:03;5.40;99.90
12911;DHT22;6523;49.758;6.120;2022-12-07T14:41:29;5.40;99.90
12911;DHT22;6523;49.758;6.120;2022-12-07T14:44:13;5.40;99.90
12911;DHT22;6523;49.758;6.120;2022-12-07T14:46:39;5.40;99.90
12911;DHT22;6523;49.758;6.120;2022-12-07T14:49:04;5.30;99.90
12911;DHT22;6523;49.758;6.120;2022-12-07T14:51:31;5.30;99.90
12911;DHT22;6523;49.758;6.120;2022-12-07T14:53:57;5.20;99.90
12911;DHT22;6523;49.758;6.120;2022-12-07T14:56:23;5.20;99.90
12911;DHT22;6523;49.758;6.120;2022-12-07T14:58:49;5.10;99.90
12911;DHT22;6523;49.758;6.120;2022-12-07T15:01:14;5.10;99.90
12911;DHT22;6523;49.758;6.120;2022-12-07T15:03:40;5.10;99.90
12911;DHT22;6523;49.758;6.120;2022-12-07T15:06:06;5.10;99.90
12911;DHT22;6523;49.758;6.120;2022-12-07T15:08:33;5.10;99.90
12911;DHT22;6523;49.758;6.120;2022-12-07T15:10:59;5.10;99.90
12911;DHT22;6523;49.758;6.120;2022-12-07T15:13:24;5.00;99.90
12911;DHT22;6523;49.758;6.120;2022-12-07T15:16:13;5.00;99.90
12911;DHT22;6523;49.758;6.120;2022-12-07T15:18:41;4.90;99.90
12911;DHT22;6523;49.758;6.120;2022-12-07T15:21:13;4.80;99.90
12911;DHT22;6523;49.758;6.120;2022-12-07T15:23:39;4.70;99.90
12911;DHT22;6523;49.758;6.120;2022-12-07T15:26:04;4.70;99.90
12911;DHT22;6523;49.758;6.120;2022-12-07T15:28:30;4.60;99.90
12911;DHT22;6523;49.758;6.120;2022-12-07T15:30:56;4.60;99.90
12911;DHT22;6523;49.758;6.120;2022-12-07T15:33:21;4.60;99.90
12911;DHT22;6523;49.758;6.120;2022-12-07T15:35:47;4.60;99.90
12911;DHT22;6523;49.758;6.120;2022-12-07T15:38:12;4.50;99.90
12911;DHT22;6523;49.758;6.120;2022-12-07T15:40:38;4.40;99.90
12911;DHT22;6523;49.758;6.120;2022-12-07T15:43:04;4.50;99.90
12911;DHT22;6523;49.758;6.120;2022-12-07T15:45:30;4.30;99.90
12911;DHT22;6523;49.758;6.120;2022-12-07T15:47:56;4.30;99.90
12911;DHT22;6523;49.758;6.120;2022-12-07T15:50:22;4.30;99.90
12911;DHT22;6523;49.758;6.120;2022-12-07T15:52:48;4.20;99.90
12911;DHT22;6523;49.758;6.120;2022-12-07T15:55:14;4.10;99.90
12911;DHT22;6523;49.758;6.120;2022-12-07T15:57:40;4.10;99.90
12911;DHT22;6523;49.758;6.120;2022-12-07T16:00:08;4.10;99.90
12911;DHT22;6523;49.758;6.120;2022-12-07T16:02:37;4.10;99.90
12911;DHT22;6523;49.758;6.120;2022-12-07T16:05:03;4.10;99.90
12911;DHT22;6523;49.758;6.120;2022-12-07T16:07:28;4.00;99.90
12911;DHT22;6523;49.758;6.120;2022-12-07T16:09:54;4.00;99.90
12911;DHT22;6523;49.758;6.120;2022-12-07T16:12:20;4.00;99.90
12911;DHT22;6523;49.758;6.120;2022-12-07T16:14:45;4.00;99.90
12911;DHT22;6523;49.758;6.120;2022-12-07T16:17:11;4.00;99.90
12911;DHT22;6523;49.758;6.120;2022-12-07T16:19:37;3.90;99.90
12911;DHT22;6523;49.758;6.120;2022-12-07T16:22:04;3.90;99.90
12911;DHT22;6523;49.758;6.120;2022-12-07T16:24:30;3.80;99.90
12911;DHT22;6523;49.758;6.120;2022-12-07T16:26:56;3.90;99.90
12911;DHT22;6523;49.758;6.120;2022-12-07T16:29:22;3.90;99.90
12911;DHT22;6523;49.758;6.120;2022-12-07T16:31:48;3.90;99.90
12911;DHT22;6523;49.758;6.120;2022-12-07T16:34:15;3.90;99.90
12911;DHT22;6523;49.758;6.120;2022-12-07T16:36:40;3.80;99.90
12911;DHT22;6523;49.758;6.120;2022-12-07T16:39:06;3.80;99.90
12911;DHT22;6523;49.758;6.120;2022-12-07T16:41:32;3.80;99.90
12911;DHT22;6523;49.758;6.120;2022-12-07T16:44:06;3.80;99.90
12911;DHT22;6523;49.758;6.120;2022-12-07T16:46:33;3.70;99.90
12911;DHT22;6523;49.758;6.120;2022-12-07T16:48:58;3.70;99.90
12911;DHT22;6523;49.758;6.120;2022-12-07T16:51:24;3.60;99.90
12911;DHT22;6523;49.758;6.120;2022-12-07T16:53:52;3.50;99.90
12911;DHT22;6523;49.758;6.120;2022-12-07T16:56:18;3.40;99.90
12911;DHT22;6523;49.758;6.120;2022-12-07T16:58:44;3.30;99.90
12911;DHT22;6523;49.758;6.120;2022-12-07T17:01:11;3.20;99.90
12911;DHT22;6523;49.758;6.120;2022-12-07T17:03:37;3.20;99.90
12911;DHT22;6523;49.758;6.120;2022-12-07T17:06:02;3.30;99.90
12911;DHT22;6523;49.758;6.120;2022-12-07T17:08:28;3.10;99.90
12911;DHT22;6523;49.758;6.120;2022-12-07T17:10:53;3.10;99.90
12911;DHT22;6523;49.758;6.120;2022-12-07T17:13:19;3.20;99.90
12911;DHT22;6523;49.758;6.120;2022-12-07T17:16:06;3.30;99.90
12911;DHT22;6523;49.758;6.120;2022-12-07T17:18:34;3.30;99.90
12911;DHT22;6523;49.758;6.120;2022-12-07T17:21:05;3.30;99.90
12911;DHT22;6523;49.758;6.120;2022-12-07T17:23:32;3.30;99.90
12911;DHT22;6523;49.758;6.120;2022-12-07T17:26:05;3.30;99.90
12911;DHT22;6523;49.758;6.120;2022-12-07T17:28:31;3.30;99.90
12911;DHT22;6523;49.758;6.120;2022-12-07T17:30:57;3.40;99.90
12911;DHT22;6523;49.758;6.120;2022-12-07T17:33:22;3.40;99.90
12911;DHT22;6523;49.758;6.120;2022-12-07T17:35:48;3.40;99.90
12911;DHT22;6523;49.758;6.120;2022-12-07T17:38:13;3.40;99.90
12911;DHT22;6523;49.758;6.120;2022-12-07T17:40:39;3.50;99.90
12911;DHT22;6523;49.758;6.120;2022-12-07T17:43:04;3.50;99.90
12911;DHT22;6523;49.758;6.120;2022-12-07T17:45:30;3.50;99.90
12911;DHT22;6523;49.758;6.120;2022-12-07T17:47:56;3.60;99.90
12911;DHT22;6523;49.758;6.120;2022-12-07T17:50:21;3.60;99.90
12911;DHT22;6523;49.758;6.120;2022-12-07T17:53:10;3.60;99.90
12911;DHT22;6523;49.758;6.120;2022-12-07T17:55:36;3.60;99.90
12911;DHT22;6523;49.758;6.120;2022-12-07T17:58:02;3.60;99.90
12911;DHT22;6523;49.758;6.120;2022-12-07T18:00:27;3.60;99.90
12911;DHT22;6523;49.758;6.120;2022-12-07T18:02:54;3.70;99.90
12911;DHT22;6523;49.758;6.120;2022-12-07T18:05:20;3.80;99.90
12911;DHT22;6523;49.758;6.120;2022-12-07T18:07:45;3.80;99.90